This is the latest recevied weather packets stored in our database for station/object AD4WX-13. If no packets are shown the sender has not sent any weather packets the latest 10 day(s).
| Time | Temp. | Humidity | Pressure | Rain* | Wind** | Luminosity | Snow |
|---|---|---|---|---|---|---|---|
| 1777874648 | 8.89° C | 89% | 1013.9 hPa | 0 mm | - | 0 W/m² | - |
| 1777874026 | 8.89° C | 89% | 1013.8 hPa | 0 mm | - | 0 W/m² | - |
| 1777872816 | 8.89° C | 89% | 1013.8 hPa | 0 mm | - | 0 W/m² | - |
| 1777868445 | 9.44° C | 88% | 1014 hPa | 0 mm | - | 0 W/m² | - |
| 1777864713 | 10° C | 86% | 1014.3 hPa | 0 mm | - | 0 W/m² | - |
| 1777855409 | 15.56° C | 63% | 1013.8 hPa | 0 mm | - | 0 W/m² | - |
| 1777849810 | 20.56° C | 38% | 1014.2 hPa | 0 mm | - | 264 W/m² | - |
| 1777849205 | 21.11° C | 38% | 1014.4 hPa | 0 mm | - | 299 W/m² | - |
| 1777846185 | 22.22° C | 34% | 1014.9 hPa | 0 mm | - | 475 W/m² | - |
| 1777845578 | 21.67° C | 35% | 1015.1 hPa | 0 mm | - | 508 W/m² | - |
| 1777832817 | 20° C | 38% | 1018.9 hPa | 0 mm | - | 958 W/m² | - |
| 1777832218 | 19.44° C | 40% | 1018.9 hPa | 0 mm | - | 962 W/m² | - |
| 1777825580 | 17.78° C | 46% | 1020.4 hPa | 0 mm | - | 902 W/m² | - |
| 1777823787 | 17.78° C | 46% | 1020.8 hPa | 0 mm | - | 853 W/m² | - |
| 1777821977 | 16.11° C | 50% | 1021 hPa | 0 mm | - | 786 W/m² | - |
| 1777812279 | 7.22° C | 91% | 1020.9 hPa | 0 mm | - | 250 W/m² | - |
| 1777811675 | 6.11° C | 91% | 1020.8 hPa | 0 mm | - | 236 W/m² | - |
| 1777808594 | 3.33° C | 92% | 1020.3 hPa | 0 mm | - | 44 W/m² | - |
| 1777801790 | 3.33° C | 92% | 1019.3 hPa | 0 mm | - | 0 W/m² | - |
| 1777799951 | 3.33° C | 92% | 1019.4 hPa | 0 mm | - | 0 W/m² | - |
| 1777793674 | 4.44° C | 92% | 1018.8 hPa | 0 mm | - | 0 W/m² | - |
| 1777790577 | 4.44° C | 92% | 1018.8 hPa | 0 mm | - | 0 W/m² | - |
| 1777789959 | 5° C | 91% | 1018.9 hPa | 0 mm | - | 0 W/m² | - |
| 1777788700 | 5° C | 91% | 1019 hPa | 0 mm | - | 0 W/m² | - |
| 1777786208 | 5.56° C | 91% | 1019 hPa | 0 mm | - | 0 W/m² | - |
* Rain latest hour (hover to see other rain measurements)
** Current wind speed in m/s (hover to see current wind gust speed)